createdAt,value
2017-08-10T00:01:41.568Z,20.70
2017-08-10T00:04:10.051Z,21.57
2017-08-10T00:06:37.718Z,18.27
2017-08-10T00:09:05.331Z,16.47
2017-08-10T00:11:32.985Z,17.70
2017-08-10T00:14:00.630Z,19.00
2017-08-10T00:16:28.254Z,16.90
2017-08-10T00:18:56.684Z,18.10
2017-08-10T00:21:24.314Z,17.70
2017-08-10T00:23:51.975Z,19.23
2017-08-10T00:26:19.648Z,19.10
2017-08-10T00:28:48.037Z,17.80
2017-08-10T00:31:15.681Z,19.27
2017-08-10T00:33:43.309Z,20.47
2017-08-10T00:36:11.744Z,18.10
2017-08-10T00:38:39.592Z,21.40
2017-08-10T00:41:07.226Z,16.97
2017-08-10T00:43:34.860Z,23.43
2017-08-10T00:46:02.732Z,21.83
2017-08-10T00:48:30.575Z,23.80
2017-08-10T00:50:58.179Z,22.63
2017-08-10T00:53:26.555Z,20.80
2017-08-10T00:55:54.294Z,18.83
2017-08-10T00:58:22.724Z,20.03
2017-08-10T01:00:50.372Z,24.33
2017-08-10T01:03:17.996Z,21.50
2017-08-10T01:05:45.613Z,21.60
2017-08-10T01:08:13.265Z,28.20
2017-08-10T01:10:41.045Z,21.93
2017-08-10T01:13:08.718Z,24.20
2017-08-10T01:15:36.337Z,27.93
2017-08-10T01:18:03.959Z,20.00
2017-08-10T01:20:31.610Z,18.70
2017-08-10T01:22:59.236Z,16.57
2017-08-10T01:25:26.880Z,16.07
2017-08-10T01:27:54.491Z,17.93
2017-08-10T01:30:22.103Z,16.20
2017-08-10T01:32:49.828Z,13.23
2017-08-10T01:35:17.448Z,13.80
2017-08-10T01:37:45.876Z,15.30
2017-08-10T01:40:13.501Z,12.90
2017-08-10T01:42:41.148Z,13.77
2017-08-10T01:45:08.787Z,12.93
2017-08-10T01:47:36.399Z,15.90
2017-08-10T01:50:04.825Z,13.00
2017-08-10T01:52:32.435Z,15.17
2017-08-10T01:55:00.050Z,15.77
2017-08-10T01:57:28.456Z,17.50
2017-08-10T01:59:56.089Z,12.15
2017-08-10T02:02:23.744Z,13.70
2017-08-10T02:04:51.364Z,15.30
2017-08-10T02:07:19.820Z,14.37
2017-08-10T02:09:48.229Z,15.93
2017-08-10T02:12:15.846Z,13.97
2017-08-10T02:14:43.505Z,13.80
2017-08-10T02:17:11.195Z,13.10
2017-08-10T02:19:38.818Z,16.00
2017-08-10T02:22:06.677Z,15.07
2017-08-10T02:24:34.331Z,16.73
2017-08-10T02:27:01.991Z,15.47
2017-08-10T02:29:29.653Z,18.77
2017-08-10T02:31:57.277Z,18.50
2017-08-10T02:34:24.938Z,21.50
2017-08-10T02:36:52.540Z,22.43
2017-08-10T02:39:20.203Z,23.30
2017-08-10T02:41:47.811Z,23.10
2017-08-10T02:44:15.430Z,22.53
2017-08-10T02:46:43.085Z,25.47
2017-08-10T02:49:10.812Z,24.15
2017-08-10T02:51:38.459Z,24.23
2017-08-10T02:54:06.075Z,28.17
2017-08-10T02:56:33.704Z,28.27
2017-08-10T02:59:01.365Z,26.07
2017-08-10T03:01:29.061Z,25.97
2017-08-10T03:03:56.762Z,21.60
2017-08-10T03:06:24.389Z,27.73
2017-08-10T03:08:52.047Z,23.33
2017-08-10T03:11:19.732Z,26.90
2017-08-10T03:13:47.365Z,26.67
2017-08-10T03:16:15.017Z,25.90
2017-08-10T03:18:42.646Z,28.53
2017-08-10T03:21:10.292Z,27.48
2017-08-10T03:23:37.960Z,27.80
2017-08-10T03:26:05.610Z,28.33
2017-08-10T03:28:33.273Z,30.37
2017-08-10T03:31:01.020Z,25.52
2017-08-10T03:33:28.667Z,26.90
2017-08-10T03:35:56.307Z,22.73
2017-08-10T03:38:23.953Z,23.62
2017-08-10T03:40:51.619Z,22.33
2017-08-10T03:43:20.073Z,23.60
2017-08-10T03:45:47.726Z,28.00
2017-08-10T03:48:15.379Z,29.60
2017-08-10T03:50:43.030Z,28.60
2017-08-10T03:53:10.729Z,26.95
2017-08-10T03:55:38.377Z,24.67
2017-08-10T03:58:06.032Z,26.15
2017-08-10T04:00:33.694Z,25.83
2017-08-10T04:03:01.312Z,30.33
2017-08-10T04:05:28.998Z,25.40
2017-08-10T04:07:57.547Z,25.53
2017-08-10T04:10:25.963Z,27.60
2017-08-10T04:12:53.634Z,25.03
2017-08-10T04:15:21.255Z,32.83
2017-08-10T04:17:48.962Z,29.05
2017-08-10T04:20:16.627Z,26.52
2017-08-10T04:22:45.004Z,24.17
2017-08-10T04:25:12.655Z,26.03
2017-08-10T04:27:40.325Z,33.00
2017-08-10T04:30:08.009Z,25.00
2017-08-10T04:32:35.623Z,29.30
2017-08-10T04:35:03.248Z,31.77
2017-08-10T04:37:30.994Z,25.47
2017-08-10T04:39:58.634Z,26.23
2017-08-10T04:42:26.341Z,27.73
2017-08-10T04:44:53.964Z,27.30
2017-08-10T04:47:21.635Z,33.35
2017-08-10T04:49:50.118Z,33.17
2017-08-10T04:52:17.765Z,33.47
2017-08-10T04:54:46.130Z,34.53
2017-08-10T04:57:13.827Z,31.10
2017-08-10T04:59:41.487Z,28.48
2017-08-10T05:02:09.178Z,29.05
2017-08-10T05:04:36.828Z,25.08
2017-08-10T05:07:04.501Z,25.92
2017-08-10T05:09:32.195Z,24.93
2017-08-10T05:11:59.905Z,23.52
2017-08-10T05:14:27.596Z,28.20
2017-08-10T05:16:56.004Z,25.08
2017-08-10T05:19:23.671Z,23.55
2017-08-10T05:21:51.310Z,27.03
2017-08-10T05:24:18.947Z,26.50
2017-08-10T05:26:46.687Z,25.65
2017-08-10T05:29:14.343Z,24.83
2017-08-10T05:31:42.038Z,24.67
2017-08-10T05:34:10.462Z,27.48
2017-08-10T05:36:38.075Z,25.53
2017-08-10T05:39:06.502Z,23.73
2017-08-10T05:41:34.158Z,22.70
2017-08-10T05:44:01.861Z,24.55
2017-08-10T05:46:29.580Z,23.45
2017-08-10T05:48:57.249Z,30.85
2017-08-10T05:51:24.899Z,30.07
2017-08-10T05:53:52.521Z,28.30
2017-08-10T05:56:21.095Z,31.50
2017-08-10T05:58:48.721Z,29.43
2017-08-10T06:01:16.359Z,28.77
2017-08-10T06:03:44.796Z,32.78
2017-08-10T06:06:12.441Z,37.17
2017-08-10T06:08:40.298Z,36.90
2017-08-10T06:11:07.959Z,28.70
2017-08-10T06:13:35.614Z,32.92
2017-08-10T06:16:03.268Z,35.20
2017-08-10T06:18:31.773Z,35.13
2017-08-10T06:20:59.593Z,32.67
2017-08-10T06:23:27.217Z,32.07
2017-08-10T06:25:54.881Z,37.40
2017-08-10T06:28:22.529Z,30.35
2017-08-10T06:30:50.265Z,30.23
2017-08-10T06:33:18.800Z,28.12
2017-08-10T06:35:47.318Z,32.08
2017-08-10T06:38:15.575Z,37.08
2017-08-10T06:40:43.307Z,36.17
2017-08-10T06:43:11.017Z,25.43
2017-08-10T06:45:38.801Z,30.90
2017-08-10T06:48:06.467Z,27.50
2017-08-10T06:50:34.877Z,25.45
2017-08-10T06:53:02.525Z,28.55
2017-08-10T06:55:30.391Z,26.40
2017-08-10T06:57:58.192Z,25.40
2017-08-10T07:00:25.974Z,28.27
2017-08-10T07:02:53.676Z,31.20
2017-08-10T07:05:21.376Z,25.90
2017-08-10T07:07:50.046Z,22.70
2017-08-10T07:10:17.733Z,22.37
2017-08-10T07:12:45.375Z,26.97
2017-08-10T07:15:13.791Z,26.00
2017-08-10T07:17:41.563Z,26.53
2017-08-10T07:20:09.261Z,27.20
2017-08-10T07:22:37.189Z,27.00
2017-08-10T07:25:04.851Z,23.63
2017-08-10T07:27:33.260Z,25.30
2017-08-10T07:30:01.024Z,23.57
2017-08-10T07:32:28.644Z,22.57
2017-08-10T07:34:56.297Z,23.77
2017-08-10T07:37:23.934Z,23.77
2017-08-10T07:39:51.558Z,19.07
2017-08-10T07:42:20.776Z,21.70
2017-08-10T07:44:48.521Z,20.83
2017-08-10T07:47:16.180Z,24.40
2017-08-10T07:49:43.814Z,21.37
2017-08-10T07:52:11.440Z,23.07
2017-08-10T07:54:39.960Z,24.97
2017-08-10T07:57:07.571Z,25.77
2017-08-10T07:59:35.257Z,25.27
2017-08-10T08:02:02.867Z,26.50
2017-08-10T08:04:30.494Z,27.13
2017-08-10T08:06:58.166Z,29.30
2017-08-10T08:09:25.789Z,25.50
2017-08-10T08:11:54.512Z,24.25
2017-08-10T08:14:22.115Z,24.33
2017-08-10T08:16:51.665Z,22.60
2017-08-10T08:19:20.216Z,24.57
2017-08-10T08:21:48.683Z,23.83
2017-08-10T08:24:16.332Z,23.80
2017-08-10T08:26:43.949Z,25.73
2017-08-10T08:29:11.954Z,30.47
2017-08-10T08:31:39.902Z,26.10
2017-08-10T08:34:07.537Z,26.57
2017-08-10T08:36:35.181Z,21.83
2017-08-10T08:39:02.805Z,21.73
2017-08-10T08:41:30.542Z,19.20
2017-08-10T08:43:58.183Z,24.53
2017-08-10T08:46:25.793Z,21.17
2017-08-10T08:48:53.452Z,23.77
2017-08-10T08:51:21.896Z,22.37
2017-08-10T08:53:49.593Z,27.37
2017-08-10T08:56:17.253Z,22.87
2017-08-10T08:58:44.873Z,25.63
2017-08-10T09:01:12.521Z,22.23
2017-08-10T09:03:40.135Z,22.57
2017-08-10T09:06:07.766Z,30.27
2017-08-10T09:08:35.422Z,26.90
2017-08-10T09:11:03.048Z,28.40
2017-08-10T09:13:30.703Z,27.37
2017-08-10T09:15:58.312Z,29.17
2017-08-10T09:18:25.923Z,29.77
2017-08-10T09:20:54.341Z,31.00
2017-08-10T09:23:21.973Z,31.73
2017-08-10T09:25:49.687Z,30.17
2017-08-10T09:28:17.291Z,27.10
2017-08-10T09:30:44.906Z,28.03
2017-08-10T09:33:12.547Z,30.93
2017-08-10T09:35:40.195Z,25.30
2017-08-10T09:38:07.860Z,24.90
2017-08-10T09:40:35.632Z,24.40
2017-08-10T09:43:03.477Z,25.40
2017-08-10T09:45:31.158Z,27.70
2017-08-10T09:47:58.793Z,23.33
2017-08-10T09:50:26.447Z,23.23
2017-08-10T09:52:54.146Z,25.97
2017-08-10T09:55:21.810Z,24.90
2017-08-10T09:57:49.614Z,29.20
2017-08-10T10:00:17.997Z,35.47
2017-08-10T10:02:45.636Z,29.97
2017-08-10T10:05:13.251Z,38.93
2017-08-10T10:07:40.911Z,32.07
2017-08-10T10:10:09.381Z,27.50
2017-08-10T10:12:37.793Z,33.37
2017-08-10T10:15:05.779Z,28.13
2017-08-10T10:17:34.232Z,25.97
2017-08-10T10:20:01.889Z,28.67
2017-08-10T10:22:29.673Z,27.10
2017-08-10T10:24:57.402Z,27.67
2017-08-10T10:27:25.067Z,27.03
2017-08-10T10:29:52.700Z,27.37
2017-08-10T10:32:21.096Z,30.73
2017-08-10T10:34:48.817Z,31.53
2017-08-10T10:37:16.503Z,28.13
2017-08-10T10:39:44.156Z,30.10
2017-08-10T10:42:11.795Z,27.90
2017-08-10T10:44:39.620Z,28.33
2017-08-10T10:47:08.032Z,28.67
2017-08-10T10:49:35.666Z,28.40
2017-08-10T10:52:03.311Z,28.07
2017-08-10T10:54:31.021Z,28.40
2017-08-10T10:56:58.655Z,25.30
2017-08-10T10:59:27.071Z,30.20
2017-08-10T11:01:54.695Z,26.63
2017-08-10T11:04:22.350Z,25.33
2017-08-10T11:06:50.006Z,26.80
2017-08-10T11:09:17.632Z,25.33
2017-08-10T11:11:45.286Z,28.50
2017-08-10T11:14:12.910Z,25.03
2017-08-10T11:16:40.599Z,27.43
2017-08-10T11:19:08.208Z,25.80
2017-08-10T11:21:36.586Z,24.63
2017-08-10T11:24:05.027Z,25.13
2017-08-10T11:26:32.660Z,24.50
2017-08-10T11:29:00.666Z,24.33
2017-08-10T11:31:28.293Z,26.50
2017-08-10T11:33:55.918Z,27.57
2017-08-10T11:36:23.581Z,23.63
2017-08-10T11:38:51.213Z,27.90
2017-08-10T11:41:19.644Z,26.10
2017-08-10T11:43:47.268Z,23.83
2017-08-10T11:46:14.900Z,22.70
2017-08-10T11:48:42.575Z,24.17
2017-08-10T11:51:10.228Z,22.53
2017-08-10T11:53:37.890Z,25.00
2017-08-10T11:56:05.526Z,21.63
2017-08-10T11:58:33.144Z,23.70
2017-08-10T12:01:00.809Z,19.73
2017-08-10T12:03:28.426Z,20.13
2017-08-10T12:05:56.093Z,19.07
2017-08-10T12:08:23.718Z,20.93
2017-08-10T12:10:51.436Z,19.87
2017-08-10T12:13:20.000Z,18.93
2017-08-10T12:15:47.621Z,18.13
2017-08-10T12:18:15.338Z,18.73
2017-08-10T12:20:42.967Z,21.50
2017-08-10T12:23:10.656Z,19.23
2017-08-10T12:25:38.443Z,21.87
2017-08-10T12:28:08.631Z,20.23
2017-08-10T12:30:36.298Z,19.37
2017-08-10T12:33:03.930Z,16.90
2017-08-10T12:35:32.335Z,18.40
2017-08-10T12:37:59.998Z,18.83
2017-08-10T12:40:27.624Z,20.60
2017-08-10T12:42:55.282Z,22.80
2017-08-10T12:45:22.903Z,22.03
2017-08-10T12:47:51.298Z,22.17
2017-08-10T12:50:18.949Z,21.93
2017-08-10T12:52:46.580Z,22.80
2017-08-10T12:55:16.577Z,21.30
2017-08-10T12:57:44.205Z,23.60
2017-08-10T13:00:12.659Z,22.00
2017-08-10T13:02:40.315Z,23.13
2017-08-10T13:05:07.938Z,19.33
2017-08-10T13:07:35.763Z,22.33
2017-08-10T13:10:03.419Z,23.10
2017-08-10T13:12:31.059Z,23.50
2017-08-10T13:14:58.728Z,21.50
2017-08-10T13:17:26.353Z,18.17
2017-08-10T13:19:54.005Z,22.20
2017-08-10T13:22:21.627Z,17.87
2017-08-10T13:24:49.250Z,19.63
2017-08-10T13:27:16.909Z,17.83
2017-08-10T13:29:44.526Z,17.50
2017-08-10T13:32:12.206Z,18.40
2017-08-10T13:34:39.875Z,19.07
2017-08-10T13:37:07.493Z,18.07
2017-08-10T13:39:35.140Z,19.70
2017-08-10T13:42:02.771Z,17.67
2017-08-10T13:44:31.179Z,18.77
2017-08-10T13:46:58.796Z,18.23
2017-08-10T13:49:26.453Z,19.40
2017-08-10T13:51:54.118Z,20.47
2017-08-10T13:54:21.744Z,20.20
2017-08-10T13:56:49.491Z,21.93
2017-08-10T13:59:17.121Z,23.07
2017-08-10T14:01:45.502Z,21.47
2017-08-10T14:04:13.165Z,21.57
2017-08-10T14:06:40.791Z,21.17
2017-08-10T14:09:08.461Z,19.47
2017-08-10T14:11:36.222Z,20.90
2017-08-10T14:14:03.989Z,19.53
2017-08-10T14:16:31.639Z,20.80
2017-08-10T14:18:59.269Z,19.80
2017-08-10T14:21:26.917Z,17.97
2017-08-10T14:23:54.557Z,17.70
2017-08-10T14:26:22.173Z,20.33
2017-08-10T14:28:49.982Z,16.60
2017-08-10T14:31:17.605Z,16.17
2017-08-10T14:33:45.266Z,15.40
2017-08-10T14:36:12.884Z,17.97
2017-08-10T14:38:41.351Z,17.50
2017-08-10T14:41:09.008Z,18.20
2017-08-10T14:43:36.651Z,15.67
2017-08-10T14:46:04.300Z,19.63
2017-08-10T14:48:31.929Z,18.87
2017-08-10T14:50:59.598Z,18.00
2017-08-10T14:53:27.253Z,17.80
2017-08-10T14:55:54.896Z,20.60
2017-08-10T14:58:22.544Z,19.23
2017-08-10T15:00:50.165Z,19.37
2017-08-10T15:03:17.783Z,21.33
2017-08-10T15:05:46.192Z,21.40
2017-08-10T15:08:13.851Z,21.03
2017-08-10T15:10:41.509Z,19.20
2017-08-10T15:13:09.173Z,20.17
2017-08-10T15:15:36.816Z,20.83
2017-08-10T15:18:05.241Z,19.27
2017-08-10T15:20:32.858Z,20.03
2017-08-10T15:23:00.523Z,21.53
2017-08-10T15:25:28.155Z,21.93
2017-08-10T15:27:55.779Z,23.60
2017-08-10T15:30:23.431Z,21.77
2017-08-10T15:32:51.808Z,21.87
2017-08-10T15:35:19.639Z,21.37
2017-08-10T15:37:47.273Z,21.17
2017-08-10T15:40:15.655Z,22.00
2017-08-10T15:42:43.315Z,21.23
2017-08-10T15:45:11.725Z,21.07
2017-08-10T15:47:39.425Z,21.20
2017-08-10T15:50:07.055Z,22.20
2017-08-10T15:52:35.590Z,19.67
2017-08-10T15:55:04.000Z,21.30
2017-08-10T15:57:31.620Z,21.33
2017-08-10T16:00:00.117Z,20.70
2017-08-10T16:02:27.741Z,21.83
2017-08-10T16:04:55.397Z,20.90
2017-08-10T16:07:23.051Z,20.87
2017-08-10T16:09:50.690Z,20.93
2017-08-10T16:12:18.327Z,19.00
2017-08-10T16:14:46.750Z,18.30
2017-08-10T16:17:14.365Z,19.80
2017-08-10T16:19:42.021Z,19.63
2017-08-10T16:22:09.785Z,19.43
2017-08-10T16:24:37.515Z,18.37
2017-08-10T16:27:05.124Z,20.70
2017-08-10T16:29:33.513Z,19.13
2017-08-10T16:32:01.156Z,18.60
2017-08-10T16:34:28.764Z,17.80
2017-08-10T16:36:57.204Z,19.20
2017-08-10T16:39:24.834Z,17.30
2017-08-10T16:41:52.492Z,16.17
2017-08-10T16:44:20.172Z,16.10
2017-08-10T16:46:47.807Z,16.97
2017-08-10T16:49:15.464Z,16.80
2017-08-10T16:51:43.863Z,16.23
2017-08-10T16:54:11.968Z,16.53
2017-08-10T16:56:41.528Z,15.47
2017-08-10T16:59:09.206Z,16.30
2017-08-10T17:01:36.874Z,14.67
2017-08-10T17:04:05.276Z,14.80
2017-08-10T17:06:32.919Z,15.00
2017-08-10T17:09:00.577Z,15.90
2017-08-10T17:11:28.209Z,14.93
2017-08-10T17:13:55.864Z,15.10
2017-08-10T17:16:23.481Z,16.23
2017-08-10T17:18:51.106Z,15.53
2017-08-10T17:21:18.791Z,14.13
2017-08-10T17:23:46.407Z,14.17
2017-08-10T17:26:14.824Z,16.47
2017-08-10T17:28:42.462Z,14.43
2017-08-10T17:31:10.097Z,13.73
2017-08-10T17:33:37.736Z,15.80
2017-08-10T17:36:05.430Z,14.80
2017-08-10T17:38:33.124Z,15.77
2017-08-10T17:41:00.747Z,14.70
2017-08-10T17:43:28.380Z,14.57
2017-08-10T17:45:56.032Z,15.87
2017-08-10T17:48:23.649Z,16.00
2017-08-10T17:50:51.342Z,15.83
2017-08-10T17:53:18.968Z,15.20
2017-08-10T17:55:47.359Z,15.93
2017-08-10T17:58:15.008Z,16.63
2017-08-10T18:00:42.633Z,14.80
2017-08-10T18:03:11.179Z,17.40
2017-08-10T18:05:38.791Z,16.67
2017-08-10T18:08:06.412Z,17.13
2017-08-10T18:10:34.064Z,17.60
2017-08-10T18:13:01.706Z,18.20
2017-08-10T18:15:32.104Z,16.90
2017-08-10T18:17:59.746Z,21.20
2017-08-10T18:20:27.403Z,19.27
2017-08-10T18:22:55.044Z,18.67
2017-08-10T18:25:23.420Z,18.83
2017-08-10T18:27:51.067Z,18.47
2017-08-10T18:30:19.460Z,15.37
2017-08-10T18:32:47.238Z,16.93
2017-08-10T18:35:15.812Z,16.67
2017-08-10T18:37:43.429Z,17.60
2017-08-10T18:40:11.812Z,18.77
2017-08-10T18:42:39.537Z,18.47
2017-08-10T18:45:07.148Z,19.20
2017-08-10T18:47:38.438Z,18.70
2017-08-10T18:50:06.974Z,18.20
2017-08-10T18:52:34.637Z,17.97
2017-08-10T18:55:02.262Z,18.63
2017-08-10T18:57:29.987Z,16.70
2017-08-10T18:59:58.387Z,17.67
2017-08-10T19:02:26.008Z,18.60
2017-08-10T19:04:53.654Z,16.83
2017-08-10T19:07:21.273Z,16.87
2017-08-10T19:09:49.709Z,18.27
2017-08-10T19:12:17.356Z,14.80
2017-08-10T19:14:44.962Z,16.07
2017-08-10T19:17:12.641Z,15.10
2017-08-10T19:19:40.253Z,14.87
2017-08-10T19:22:07.864Z,16.93
2017-08-10T19:24:35.520Z,14.93
2017-08-10T19:27:03.140Z,14.00
2017-08-10T19:29:30.819Z,15.43
2017-08-10T19:31:59.191Z,15.00
2017-08-10T19:34:26.968Z,14.40
2017-08-10T19:36:54.780Z,14.53
2017-08-10T19:39:23.171Z,13.93
2017-08-10T19:41:50.913Z,12.43
2017-08-10T19:44:18.527Z,14.40
2017-08-10T19:46:46.956Z,13.43
2017-08-10T19:49:14.605Z,14.27
2017-08-10T19:51:42.224Z,12.37
2017-08-10T19:54:10.879Z,13.27
2017-08-10T19:56:38.673Z,15.27
2017-08-10T19:59:06.388Z,14.57
2017-08-10T20:01:34.035Z,14.00
2017-08-10T20:04:01.757Z,13.33
2017-08-10T20:06:30.185Z,14.23
2017-08-10T20:08:57.817Z,15.10
2017-08-10T20:11:25.468Z,14.50
2017-08-10T20:13:53.233Z,13.43
2017-08-10T20:16:21.072Z,13.60
2017-08-10T20:18:48.923Z,14.63
2017-08-10T20:21:16.581Z,14.20
2017-08-10T20:23:44.254Z,14.63
2017-08-10T20:26:12.753Z,12.17
2017-08-10T20:28:41.296Z,14.00
2017-08-10T20:31:10.947Z,13.97
2017-08-10T20:33:38.657Z,14.90
2017-08-10T20:36:06.285Z,14.13
2017-08-10T20:38:34.702Z,15.10
2017-08-10T20:41:02.397Z,15.03
2017-08-10T20:43:30.064Z,14.80
2017-08-10T20:45:57.683Z,14.23
2017-08-10T20:48:26.063Z,14.83
2017-08-10T20:50:53.838Z,15.33
2017-08-10T20:53:21.512Z,14.57
2017-08-10T20:55:50.005Z,16.03
2017-08-10T20:58:18.820Z,14.20
2017-08-10T21:00:46.448Z,13.97
2017-08-10T21:03:14.213Z,15.30
2017-08-10T21:05:41.823Z,13.00
2017-08-10T21:08:10.360Z,14.30
2017-08-10T21:10:38.041Z,14.00
2017-08-10T21:13:06.468Z,15.57
2017-08-10T21:15:34.120Z,14.67
2017-08-10T21:18:01.745Z,16.10
2017-08-10T21:20:29.532Z,14.13
2017-08-10T21:22:57.161Z,14.23
2017-08-10T21:25:24.785Z,15.27
2017-08-10T21:27:52.699Z,14.70
2017-08-10T21:30:21.455Z,14.57
2017-08-10T21:32:49.381Z,14.00
2017-08-10T21:35:16.995Z,14.60
2017-08-10T21:37:44.642Z,14.13
2017-08-10T21:40:12.307Z,15.30
2017-08-10T21:42:40.000Z,15.03
2017-08-10T21:45:08.428Z,14.90
2017-08-10T21:47:36.185Z,15.50
2017-08-10T21:50:03.992Z,16.73
2017-08-10T21:52:31.848Z,14.83
2017-08-10T21:54:59.605Z,15.07
2017-08-10T21:57:27.291Z,15.77
2017-08-10T21:59:55.719Z,15.50
2017-08-10T22:02:23.336Z,14.40
2017-08-10T22:04:50.979Z,15.87
2017-08-10T22:07:19.388Z,15.30
2017-08-10T22:09:47.028Z,16.63
2017-08-10T22:12:14.735Z,16.90
2017-08-10T22:14:43.119Z,17.97
2017-08-10T22:17:12.365Z,15.13
2017-08-10T22:19:40.197Z,15.87
2017-08-10T22:22:07.848Z,16.00
2017-08-10T22:24:35.478Z,16.30
2017-08-10T22:27:03.098Z,16.90
2017-08-10T22:29:30.758Z,17.60
2017-08-10T22:31:58.431Z,16.37
2017-08-10T22:34:26.075Z,16.70
2017-08-10T22:36:53.706Z,18.77
2017-08-10T22:39:21.327Z,18.33
2017-08-10T22:41:48.988Z,17.73
2017-08-10T22:44:16.656Z,17.83
2017-08-10T22:46:44.310Z,18.03
2017-08-10T22:49:11.946Z,18.70
2017-08-10T22:51:39.668Z,18.73
2017-08-10T22:54:07.315Z,18.30
2017-08-10T22:56:34.949Z,17.20
2017-08-10T22:59:02.596Z,16.53
2017-08-10T23:01:30.221Z,19.27
2017-08-10T23:03:58.667Z,18.90
2017-08-10T23:06:26.337Z,16.63
2017-08-10T23:08:54.732Z,18.97
2017-08-10T23:11:22.392Z,18.93
2017-08-10T23:13:50.052Z,19.40
2017-08-10T23:16:17.663Z,17.40
2017-08-10T23:18:45.324Z,18.40
2017-08-10T23:21:12.933Z,19.30
2017-08-10T23:23:41.349Z,18.87
2017-08-10T23:26:09.042Z,18.80
2017-08-10T23:28:36.740Z,17.63
2017-08-10T23:31:04.388Z,18.77
2017-08-10T23:33:32.010Z,18.20
2017-08-10T23:35:59.698Z,20.40
2017-08-10T23:38:27.326Z,20.73
2017-08-10T23:40:54.939Z,18.13
2017-08-10T23:43:22.598Z,20.03
2017-08-10T23:45:50.221Z,20.10
2017-08-10T23:48:18.624Z,19.03
2017-08-10T23:50:46.235Z,20.67
2017-08-10T23:53:14.622Z,19.43
2017-08-10T23:55:42.275Z,18.87
2017-08-10T23:58:10.870Z,18.47
